createdAt,value
2022-12-11T00:02:11.661Z,44.40
2022-12-11T00:04:38.252Z,66.80
2022-12-11T00:07:04.792Z,30.30
2022-12-11T00:09:31.544Z,19.10
2022-12-11T00:11:58.052Z,24.20
2022-12-11T00:14:24.557Z,28.60
2022-12-11T00:16:51.098Z,24.10
2022-12-11T00:19:17.593Z,21.80
2022-12-11T00:21:44.138Z,33.20
2022-12-11T00:24:10.680Z,21.10
2022-12-11T00:26:37.247Z,24.70
2022-12-11T00:29:04.165Z,23.70
2022-12-11T00:31:31.352Z,34.00
2022-12-11T00:33:58.072Z,25.40
2022-12-11T00:36:26.667Z,26.60
2022-12-11T00:38:54.233Z,20.00
2022-12-11T00:41:20.966Z,20.50
2022-12-11T00:43:47.915Z,21.20
2022-12-11T00:46:15.062Z,26.30
2022-12-11T00:48:41.791Z,29.50
2022-12-11T00:51:08.581Z,25.70
2022-12-11T00:53:35.069Z,28.40
2022-12-11T00:56:01.512Z,19.10
2022-12-11T00:58:28.486Z,20.80
2022-12-11T01:00:55.239Z,22.00
2022-12-11T01:03:21.861Z,22.40
2022-12-11T01:05:55.761Z,22.10
2022-12-11T01:08:22.457Z,24.20
2022-12-11T01:10:49.088Z,26.60
2022-12-11T01:13:16.210Z,43.90
2022-12-11T01:15:45.517Z,33.50
2022-12-11T01:18:13.803Z,40.20
2022-12-11T01:20:42.113Z,37.50
2022-12-11T01:23:08.590Z,30.20
2022-12-11T01:25:36.011Z,26.10
2022-12-11T01:28:02.736Z,23.00
2022-12-11T01:30:29.257Z,21.70
2022-12-11T01:32:55.742Z,20.50
2022-12-11T01:35:22.661Z,26.50
2022-12-11T01:37:49.495Z,21.40
2022-12-11T01:40:19.487Z,37.40
2022-12-11T01:42:46.492Z,24.40
2022-12-11T01:45:24.683Z,34.30
2022-12-11T01:48:05.326Z,26.90
2022-12-11T01:50:36.743Z,22.90
2022-12-11T01:53:06.145Z,21.90
2022-12-11T01:55:34.422Z,25.70
2022-12-11T01:58:02.480Z,28.40
2022-12-11T02:00:29.011Z,36.30
2022-12-11T02:02:55.483Z,28.70
2022-12-11T02:05:22.210Z,29.00
2022-12-11T02:07:53.911Z,27.70
2022-12-11T02:10:22.077Z,25.00
2022-12-11T02:12:59.010Z,23.90
2022-12-11T02:15:37.977Z,28.60
2022-12-11T02:18:31.435Z,26.50
2022-12-11T02:21:05.735Z,24.00
2022-12-11T02:23:44.482Z,24.60
2022-12-11T02:26:13.916Z,28.30
2022-12-11T02:28:49.335Z,27.10
2022-12-11T02:31:28.019Z,27.50
2022-12-11T02:34:06.992Z,22.90
2022-12-11T02:36:37.816Z,25.60
2022-12-11T02:39:07.648Z,25.60
2022-12-11T02:41:34.801Z,27.60
2022-12-11T02:44:04.160Z,21.10
2022-12-11T02:46:33.823Z,22.00
2022-12-11T02:49:03.002Z,20.80
2022-12-11T02:51:34.485Z,21.80
2022-12-11T02:54:02.238Z,21.60
2022-12-11T02:56:34.115Z,24.70
2022-12-11T02:59:07.054Z,23.10
2022-12-11T03:01:33.796Z,24.60
2022-12-11T03:04:00.581Z,26.40
2022-12-11T03:06:36.152Z,23.60
2022-12-11T03:09:04.928Z,24.90
2022-12-11T03:11:31.483Z,25.20
2022-12-11T03:13:59.180Z,21.10
2022-12-11T03:17:07.158Z,24.30
2022-12-11T03:19:41.477Z,22.30
2022-12-11T03:22:26.853Z,23.70
2022-12-11T03:25:00.769Z,24.40
2022-12-11T03:27:37.863Z,21.20
2022-12-11T03:30:16.140Z,23.70
2022-12-11T03:32:58.024Z,24.20
2022-12-11T03:35:37.067Z,25.00
2022-12-11T03:38:12.259Z,27.00
2022-12-11T03:40:42.453Z,30.50
2022-12-11T03:43:11.329Z,30.70
2022-12-11T03:45:40.038Z,30.30
2022-12-11T03:48:10.003Z,31.20
2022-12-11T03:50:37.124Z,33.70
2022-12-11T03:53:05.111Z,32.70
2022-12-11T03:55:33.509Z,38.10
2022-12-11T03:58:00.139Z,33.40
2022-12-11T04:00:27.054Z,35.90
2022-12-11T04:02:53.755Z,35.10
2022-12-11T04:05:20.298Z,32.20
2022-12-11T04:07:46.808Z,31.10
2022-12-11T04:10:13.294Z,30.80
2022-12-11T04:12:39.657Z,34.10
2022-12-11T04:15:06.463Z,32.70
2022-12-11T04:17:36.268Z,31.90
2022-12-11T04:20:03.894Z,30.10
2022-12-11T04:22:30.294Z,30.40
2022-12-11T04:24:56.797Z,33.20
2022-12-11T04:27:23.574Z,28.10
2022-12-11T04:29:50.182Z,27.60
2022-12-11T04:32:16.724Z,30.20
2022-12-11T04:34:43.267Z,31.60
2022-12-11T04:37:09.804Z,33.90
2022-12-11T04:39:36.252Z,36.50
2022-12-11T04:42:02.716Z,29.70
2022-12-11T04:44:29.220Z,32.80
2022-12-11T04:46:55.854Z,33.70
2022-12-11T04:49:22.304Z,32.20
2022-12-11T04:51:48.948Z,31.10
2022-12-11T04:54:15.630Z,31.60
2022-12-11T04:56:42.123Z,34.40
2022-12-11T04:59:08.561Z,33.20
2022-12-11T05:01:35.446Z,32.20
2022-12-11T05:04:02.017Z,31.80
2022-12-11T05:06:28.686Z,30.00
2022-12-11T05:08:55.326Z,26.60
2022-12-11T05:11:21.799Z,25.30
2022-12-11T05:13:48.307Z,23.50
2022-12-11T05:16:16.761Z,27.80
2022-12-11T05:18:43.836Z,27.00
2022-12-11T05:21:13.646Z,25.10
2022-12-11T05:23:41.051Z,22.50
2022-12-11T05:26:11.887Z,27.40
2022-12-11T05:28:39.385Z,29.00
2022-12-11T05:31:18.185Z,23.40
2022-12-11T05:33:46.669Z,24.60
2022-12-11T05:36:21.994Z,23.60
2022-12-11T05:38:49.116Z,22.50
2022-12-11T05:41:18.580Z,24.50
2022-12-11T05:43:45.148Z,19.90
2022-12-11T05:46:21.029Z,21.90
2022-12-11T05:48:50.080Z,22.30
2022-12-11T05:51:17.721Z,23.30
2022-12-11T05:53:45.384Z,23.70
2022-12-11T05:56:20.890Z,22.20
2022-12-11T05:58:48.615Z,23.60
2022-12-11T06:01:19.281Z,23.50
2022-12-11T06:03:45.797Z,38.60
2022-12-11T06:06:12.519Z,27.20
2022-12-11T06:08:38.938Z,62.40
2022-12-11T06:11:06.312Z,59.50
2022-12-11T06:13:33.632Z,64.30
2022-12-11T06:16:02.449Z,105.50
2022-12-11T06:18:29.614Z,33.00
2022-12-11T06:20:56.121Z,19.50
2022-12-11T06:23:23.545Z,20.60
2022-12-11T06:25:50.154Z,17.20
2022-12-11T06:28:17.088Z,20.60
2022-12-11T06:30:43.538Z,17.20
2022-12-11T06:33:10.077Z,19.00
2022-12-11T06:35:41.929Z,73.80
2022-12-11T06:38:09.680Z,36.70
2022-12-11T06:40:36.221Z,33.10
2022-12-11T06:43:02.643Z,27.00
2022-12-11T06:45:29.180Z,29.40
2022-12-11T06:47:55.703Z,29.10
2022-12-11T06:50:22.316Z,19.60
2022-12-11T06:52:48.838Z,37.00
2022-12-11T06:55:15.581Z,20.60
2022-12-11T06:57:42.222Z,23.30
2022-12-11T07:00:09.558Z,18.10
2022-12-11T07:02:36.109Z,21.10
2022-12-11T07:05:03.070Z,15.60
2022-12-11T07:07:29.611Z,16.50
2022-12-11T07:09:56.332Z,14.70
2022-12-11T07:12:22.894Z,20.70
2022-12-11T07:14:49.411Z,20.60
2022-12-11T07:17:16.135Z,19.40
2022-12-11T07:19:42.925Z,21.30
2022-12-11T07:22:09.466Z,19.40
2022-12-11T07:24:36.248Z,19.70
2022-12-11T07:27:02.735Z,20.40
2022-12-11T07:29:29.420Z,27.90
2022-12-11T07:31:56.274Z,40.90
2022-12-11T07:34:22.879Z,24.20
2022-12-11T07:36:49.328Z,34.20
2022-12-11T07:39:16.277Z,41.10
2022-12-11T07:41:42.920Z,24.80
2022-12-11T07:44:09.459Z,27.70
2022-12-11T07:46:36.069Z,31.30
2022-12-11T07:49:02.604Z,27.40
2022-12-11T07:51:34.898Z,20.20
2022-12-11T07:54:05.446Z,20.60
2022-12-11T07:56:32.592Z,20.80
2022-12-11T07:59:04.527Z,25.90
2022-12-11T08:01:33.694Z,23.60
2022-12-11T08:04:00.174Z,20.10
2022-12-11T08:06:29.294Z,19.10
2022-12-11T08:08:57.323Z,26.40
2022-12-11T08:11:24.640Z,23.20
2022-12-11T08:13:51.125Z,21.30
2022-12-11T08:16:18.571Z,16.90
2022-12-11T08:18:46.724Z,15.50
2022-12-11T08:21:16.559Z,15.10
2022-12-11T08:23:43.282Z,18.50
2022-12-11T08:26:30.812Z,15.30
2022-12-11T08:28:59.046Z,18.10
2022-12-11T08:31:25.841Z,15.80
2022-12-11T08:33:53.914Z,17.20
2022-12-11T08:36:22.533Z,16.80
2022-12-11T08:38:49.774Z,12.70
2022-12-11T08:41:19.476Z,12.90
2022-12-11T08:43:46.644Z,14.90
2022-12-11T08:46:14.176Z,13.50
2022-12-11T08:48:42.378Z,16.20
2022-12-11T08:51:12.873Z,16.30
2022-12-11T08:53:40.106Z,15.00
2022-12-11T08:56:09.548Z,19.40
2022-12-11T08:58:36.119Z,21.50
2022-12-11T09:01:10.778Z,15.70
2022-12-11T09:03:38.308Z,15.30
2022-12-11T09:06:06.599Z,18.30
2022-12-11T09:08:34.253Z,16.30
2022-12-11T09:11:10.324Z,16.20
2022-12-11T09:13:37.839Z,18.10
2022-12-11T09:16:09.716Z,17.70
2022-12-11T09:18:37.523Z,17.20
2022-12-11T09:21:10.433Z,18.60
2022-12-11T09:23:37.801Z,16.80
2022-12-11T09:26:06.144Z,21.80
2022-12-11T09:28:33.485Z,18.30
2022-12-11T09:31:00.222Z,18.00
2022-12-11T09:33:26.729Z,18.90
2022-12-11T09:36:00.902Z,19.90
2022-12-11T09:38:27.538Z,21.90
2022-12-11T09:40:55.021Z,19.20
2022-12-11T09:43:30.971Z,18.80
2022-12-11T09:46:00.795Z,19.50
2022-12-11T09:48:28.060Z,19.50
2022-12-11T09:50:55.605Z,19.10
2022-12-11T09:53:33.934Z,20.60
2022-12-11T09:56:16.848Z,24.80
2022-12-11T09:58:54.347Z,25.40
2022-12-11T10:01:30.051Z,20.90
2022-12-11T10:04:31.973Z,29.10
2022-12-11T10:09:42.254Z,34.70
2022-12-11T10:12:18.010Z,29.40
2022-12-11T10:15:03.824Z,43.30
2022-12-11T10:17:33.105Z,32.30
2022-12-11T10:20:38.276Z,52.60
2022-12-11T10:23:09.644Z,50.30
2022-12-11T10:25:40.757Z,29.30
2022-12-11T10:28:19.224Z,25.60
2022-12-11T10:30:59.570Z,34.90
2022-12-11T10:33:51.045Z,20.20
2022-12-11T10:36:25.480Z,19.90
2022-12-11T10:38:52.485Z,27.30
2022-12-11T10:41:33.133Z,25.90
2022-12-11T10:43:59.747Z,25.90
2022-12-11T10:46:29.100Z,18.50
2022-12-11T10:48:58.504Z,25.80
2022-12-11T10:51:32.489Z,18.70
2022-12-11T10:54:27.216Z,14.10
2022-12-11T10:56:55.208Z,16.70
2022-12-11T10:59:39.098Z,21.20
2022-12-11T11:02:18.574Z,46.80
2022-12-11T11:04:45.607Z,16.30
2022-12-11T11:07:15.632Z,19.20
2022-12-11T11:09:42.675Z,19.30
2022-12-11T11:12:25.061Z,21.40
2022-12-11T11:15:06.300Z,17.50
2022-12-11T11:17:51.129Z,22.30
2022-12-11T11:20:25.675Z,16.70
2022-12-11T11:23:04.945Z,15.30
2022-12-11T11:25:33.605Z,13.30
2022-12-11T11:28:03.505Z,14.90
2022-12-11T11:30:37.181Z,14.70
2022-12-11T11:33:17.768Z,16.20
2022-12-11T11:36:02.729Z,15.90
2022-12-11T11:38:37.618Z,17.70
2022-12-11T11:41:21.301Z,15.40
2022-12-11T11:43:59.254Z,18.80
2022-12-11T11:46:42.643Z,18.10
2022-12-11T11:49:34.477Z,21.80
2022-12-11T11:54:58.421Z,23.90
2022-12-11T11:57:41.959Z,22.30
2022-12-11T12:00:19.348Z,21.60
2022-12-11T12:02:46.792Z,23.60
2022-12-11T12:05:13.845Z,20.30
2022-12-11T12:08:14.476Z,20.10
2022-12-11T12:10:46.888Z,24.30
2022-12-11T12:16:56.376Z,17.70
2022-12-11T12:19:43.949Z,21.90
2022-12-11T12:22:25.633Z,24.70
2022-12-11T12:27:57.561Z,27.60
2022-12-11T12:30:24.464Z,24.50
2022-12-11T12:33:15.325Z,25.40
2022-12-11T12:36:06.643Z,21.50
2022-12-11T12:38:42.861Z,21.10
2022-12-11T12:41:16.932Z,20.60
2022-12-11T12:44:05.672Z,57.50
2022-12-11T12:46:49.744Z,33.00
2022-12-11T12:49:29.803Z,26.00
2022-12-11T12:51:57.184Z,30.90
2022-12-11T12:54:26.968Z,25.20
2022-12-11T12:56:54.238Z,27.10
2022-12-11T12:59:26.262Z,28.30
2022-12-11T13:01:58.859Z,30.60
2022-12-11T13:04:56.707Z,28.70
2022-12-11T13:07:27.581Z,30.10
2022-12-11T13:12:50.820Z,29.20
2022-12-11T13:15:30.233Z,26.80
2022-12-11T13:17:57.900Z,31.60
2022-12-11T13:20:31.157Z,24.10
2022-12-11T13:23:06.507Z,29.50
2022-12-11T13:26:05.344Z,31.40
2022-12-11T13:28:46.560Z,28.10
2022-12-11T13:31:16.380Z,27.20
2022-12-11T13:33:52.711Z,25.70
2022-12-11T13:36:35.029Z,28.60
2022-12-11T13:39:08.936Z,26.40
2022-12-11T13:41:38.135Z,29.90
2022-12-11T13:44:06.125Z,29.30
2022-12-11T13:46:36.694Z,33.90
2022-12-11T13:49:07.020Z,32.90
2022-12-11T13:51:34.763Z,35.10
2022-12-11T13:54:17.824Z,37.00
2022-12-11T13:57:16.728Z,37.80
2022-12-11T13:59:48.831Z,40.30
2022-12-11T14:02:26.435Z,38.50
2022-12-11T14:04:57.761Z,40.50
2022-12-11T14:07:31.511Z,49.70
2022-12-11T14:10:06.234Z,49.20
2022-12-11T14:12:32.664Z,59.00
2022-12-11T14:15:01.873Z,50.80
2022-12-11T14:17:31.633Z,57.90
2022-12-11T14:20:00.741Z,43.90
2022-12-11T14:22:29.745Z,39.30
2022-12-11T14:24:59.393Z,42.30
2022-12-11T14:27:27.382Z,49.00
2022-12-11T14:29:54.892Z,50.50
2022-12-11T14:32:44.755Z,34.60
2022-12-11T14:35:32.877Z,36.20
2022-12-11T14:38:10.768Z,48.10
2022-12-11T14:40:43.455Z,56.80
2022-12-11T14:43:18.389Z,49.50
2022-12-11T14:45:48.358Z,41.90
2022-12-11T14:48:23.753Z,38.10
2022-12-11T14:50:55.718Z,43.90
2022-12-11T14:53:27.688Z,40.30
2022-12-11T14:55:57.037Z,34.80
2022-12-11T14:58:26.515Z,40.40
2022-12-11T15:01:04.794Z,43.90
2022-12-11T15:03:36.374Z,52.60
2022-12-11T15:08:37.106Z,31.90
2022-12-11T15:11:09.201Z,32.60
2022-12-11T15:13:39.154Z,36.20
2022-12-11T15:16:07.804Z,43.00
2022-12-11T15:18:39.241Z,43.80
2022-12-11T15:21:09.594Z,35.00
2022-12-11T15:23:44.955Z,43.40
2022-12-11T15:26:11.730Z,35.60
2022-12-11T15:28:39.437Z,41.60
2022-12-11T15:31:22.208Z,37.10
2022-12-11T15:33:48.713Z,39.30
2022-12-11T15:36:30.372Z,32.10
2022-12-11T15:38:57.868Z,31.90
2022-12-11T15:41:25.571Z,34.00
2022-12-11T15:43:59.092Z,31.00
2022-12-11T15:46:26.292Z,31.10
2022-12-11T15:48:53.150Z,35.00
2022-12-11T15:51:19.663Z,33.70
2022-12-11T15:53:46.115Z,36.10
2022-12-11T15:56:16.592Z,32.20
2022-12-11T15:58:45.344Z,38.00
2022-12-11T16:01:11.937Z,39.30
2022-12-11T16:03:38.521Z,39.20
2022-12-11T16:06:05.371Z,39.40
2022-12-11T16:08:31.855Z,41.90
2022-12-11T16:10:58.453Z,40.50
2022-12-11T16:13:24.899Z,45.50
2022-12-11T16:15:51.742Z,46.70
2022-12-11T16:18:21.337Z,49.90
2022-12-11T16:20:49.014Z,68.80
2022-12-11T16:23:16.039Z,50.80
2022-12-11T16:25:43.663Z,48.20
2022-12-11T16:28:13.501Z,37.80
2022-12-11T16:30:40.843Z,49.60
2022-12-11T16:33:12.483Z,54.40
2022-12-11T16:35:40.696Z,52.20
2022-12-11T16:38:07.278Z,47.20
2022-12-11T16:40:33.684Z,43.50
2022-12-11T16:43:00.128Z,46.70
2022-12-11T16:45:26.873Z,75.20
2022-12-11T16:47:53.952Z,61.00
2022-12-11T16:50:20.492Z,64.60
2022-12-11T16:52:47.255Z,59.00
2022-12-11T16:55:14.489Z,41.90
2022-12-11T16:57:42.161Z,45.70
2022-12-11T17:00:11.179Z,48.60
2022-12-11T17:02:37.934Z,49.10
2022-12-11T17:05:05.259Z,46.90
2022-12-11T17:07:32.926Z,39.00
2022-12-11T17:09:59.508Z,35.60
2022-12-11T17:12:26.316Z,44.30
2022-12-11T17:14:53.044Z,43.00
2022-12-11T17:17:19.602Z,47.40
2022-12-11T17:19:46.144Z,50.40
2022-12-11T17:22:12.683Z,48.60
2022-12-11T17:24:39.322Z,44.40
2022-12-11T17:27:05.864Z,46.50
2022-12-11T17:29:32.275Z,42.30
2022-12-11T17:31:58.945Z,47.40
2022-12-11T17:34:25.586Z,49.00
2022-12-11T17:36:52.126Z,49.60
2022-12-11T17:39:18.566Z,51.70
2022-12-11T17:41:45.204Z,51.60
2022-12-11T17:44:13.090Z,52.70
2022-12-11T17:46:39.780Z,53.20
2022-12-11T17:49:06.666Z,54.60
2022-12-11T17:51:33.308Z,72.70
2022-12-11T17:53:59.774Z,90.30
2022-12-11T17:56:26.905Z,136.20
2022-12-11T17:58:53.453Z,187.10
2022-12-11T18:01:20.287Z,153.40
2022-12-11T18:03:47.501Z,75.10
2022-12-11T18:06:15.535Z,98.50
2022-12-11T18:08:43.531Z,97.80
2022-12-11T18:11:20.706Z,139.40
2022-12-11T18:13:48.830Z,66.60
2022-12-11T18:16:19.236Z,73.90
2022-12-11T18:18:47.686Z,74.60
2022-12-11T18:21:17.908Z,69.50
2022-12-11T18:23:45.269Z,56.10
2022-12-11T18:26:11.911Z,52.50
2022-12-11T18:28:38.548Z,43.90
2022-12-11T18:31:05.212Z,47.50
2022-12-11T18:33:32.038Z,38.50
2022-12-11T18:35:58.542Z,44.60
2022-12-11T18:38:24.938Z,43.00
2022-12-11T18:40:51.652Z,43.20
2022-12-11T18:43:18.190Z,52.20
2022-12-11T18:45:44.705Z,48.20
2022-12-11T18:48:12.308Z,45.70
2022-12-11T18:50:46.929Z,50.20
2022-12-11T18:53:13.777Z,44.60
2022-12-11T18:55:45.130Z,37.90
2022-12-11T18:58:14.044Z,36.70
2022-12-11T19:00:42.264Z,41.60
2022-12-11T19:03:09.997Z,46.80
2022-12-11T19:05:36.836Z,45.90
2022-12-11T19:08:03.699Z,43.70
2022-12-11T19:10:30.432Z,41.50
2022-12-11T19:12:57.151Z,42.80
2022-12-11T19:15:24.239Z,36.60
2022-12-11T19:17:51.057Z,34.10
2022-12-11T19:20:48.430Z,37.40
2022-12-11T19:23:05.428Z,41.70
2022-12-11T19:25:32.732Z,36.00
2022-12-11T19:27:59.326Z,39.70
2022-12-11T19:30:25.967Z,42.60
2022-12-11T19:32:52.450Z,38.90
2022-12-11T19:35:19.046Z,46.00
2022-12-11T19:37:45.894Z,48.00
2022-12-11T19:40:12.359Z,51.60
2022-12-11T19:42:38.977Z,48.40
2022-12-11T19:45:06.229Z,53.60
2022-12-11T19:47:32.763Z,57.30
2022-12-11T19:50:00.026Z,42.80
2022-12-11T19:52:26.573Z,52.20
2022-12-11T19:54:53.520Z,40.60
2022-12-11T19:57:20.259Z,38.70
2022-12-11T19:59:46.896Z,34.90
2022-12-11T20:02:13.466Z,36.50
2022-12-11T20:04:40.093Z,35.30
2022-12-11T20:07:06.779Z,37.50
2022-12-11T20:09:33.466Z,34.80
2022-12-11T20:11:59.926Z,33.00
2022-12-11T20:14:26.755Z,34.10
2022-12-11T20:17:12.468Z,35.40
2022-12-11T20:19:40.413Z,38.60
2022-12-11T20:22:07.053Z,36.60
2022-12-11T20:24:34.000Z,37.00
2022-12-11T20:27:00.538Z,38.80
2022-12-11T20:29:27.286Z,36.40
2022-12-11T20:31:53.874Z,37.30
2022-12-11T20:34:20.388Z,36.60
2022-12-11T20:36:48.545Z,36.70
2022-12-11T20:39:15.084Z,41.10
2022-12-11T20:41:42.133Z,43.10
2022-12-11T20:44:08.769Z,45.00
2022-12-11T20:46:35.412Z,53.50
2022-12-11T20:49:02.052Z,63.90
2022-12-11T20:51:28.698Z,71.20
2022-12-11T20:53:55.887Z,66.80
2022-12-11T20:56:22.594Z,64.60
2022-12-11T20:58:49.482Z,64.40
2022-12-11T21:01:21.911Z,51.40
2022-12-11T21:03:48.557Z,77.00
2022-12-11T21:06:22.369Z,69.30
2022-12-11T21:08:49.214Z,70.10
2022-12-11T21:11:16.075Z,57.20
2022-12-11T21:13:42.701Z,51.50
2022-12-11T21:16:10.428Z,56.10
2022-12-11T21:18:38.441Z,58.60
2022-12-11T21:21:05.902Z,52.20
2022-12-11T21:23:33.284Z,52.70
2022-12-11T21:26:00.626Z,43.70
2022-12-11T21:28:33.515Z,42.40
2022-12-11T21:31:05.568Z,43.80
2022-12-11T21:33:32.636Z,44.10
2022-12-11T21:36:00.523Z,41.50
2022-12-11T21:38:28.352Z,36.70
2022-12-11T21:40:57.750Z,37.10
2022-12-11T21:43:24.550Z,37.00
2022-12-11T21:46:00.850Z,33.40
2022-12-11T21:48:29.384Z,33.20
2022-12-11T21:50:56.129Z,33.90
2022-12-11T21:53:22.762Z,34.60
2022-12-11T21:55:49.249Z,29.20
2022-12-11T21:58:15.747Z,35.10
2022-12-11T22:00:42.372Z,36.20
2022-12-11T22:03:08.859Z,34.70
2022-12-11T22:05:35.361Z,37.10
2022-12-11T22:08:02.045Z,34.40
2022-12-11T22:10:30.924Z,34.10
2022-12-11T22:12:57.372Z,38.90
2022-12-11T22:15:23.876Z,35.60
2022-12-11T22:17:51.920Z,36.90
2022-12-11T22:20:18.496Z,34.20
2022-12-11T22:22:45.028Z,36.30
2022-12-11T22:25:11.975Z,37.10
2022-12-11T22:27:38.721Z,38.00
2022-12-11T22:30:05.782Z,37.50
2022-12-11T22:32:32.231Z,30.70
2022-12-11T22:34:58.874Z,35.20
2022-12-11T22:37:25.808Z,31.60
2022-12-11T22:39:52.343Z,30.80
2022-12-11T22:42:18.761Z,33.30
2022-12-11T22:44:45.296Z,32.10
2022-12-11T22:47:13.466Z,32.60
2022-12-11T22:49:39.931Z,35.90
2022-12-11T22:52:06.469Z,31.90
2022-12-11T22:54:34.416Z,32.30
2022-12-11T22:57:00.830Z,34.10
2022-12-11T22:59:27.267Z,33.50
2022-12-11T23:01:53.858Z,33.60
2022-12-11T23:04:20.406Z,36.30
2022-12-11T23:06:47.162Z,40.40
2022-12-11T23:09:14.604Z,38.10
2022-12-11T23:11:41.146Z,45.80
2022-12-11T23:14:10.964Z,43.00
2022-12-11T23:16:37.542Z,36.90
2022-12-11T23:19:04.248Z,38.10
2022-12-11T23:21:30.793Z,38.20
2022-12-11T23:23:57.940Z,35.30
2022-12-11T23:26:24.725Z,39.30
2022-12-11T23:28:51.354Z,41.70
2022-12-11T23:31:19.731Z,39.30
2022-12-11T23:33:46.249Z,42.50
2022-12-11T23:36:13.405Z,45.30
2022-12-11T23:38:40.723Z,41.40
2022-12-11T23:41:09.975Z,45.40
2022-12-11T23:43:37.928Z,44.90
2022-12-11T23:46:10.429Z,47.70
2022-12-11T23:48:37.160Z,44.40
2022-12-11T23:51:05.891Z,46.50
2022-12-11T23:54:16.551Z,46.70
2022-12-11T23:57:27.273Z,43.70
